createdAt,value
2017-11-05T00:02:22.452Z,34.75
2017-11-05T00:04:49.945Z,29.70
2017-11-05T00:07:19.145Z,36.13
2017-11-05T00:09:47.380Z,26.80
2017-11-05T00:12:14.875Z,31.67
2017-11-05T00:14:43.120Z,33.70
2017-11-05T00:17:10.599Z,35.92
2017-11-05T00:19:38.860Z,32.05
2017-11-05T00:22:06.361Z,38.35
2017-11-05T00:24:33.877Z,33.00
2017-11-05T00:27:01.358Z,33.13
2017-11-05T00:29:29.605Z,36.97
2017-11-05T00:31:57.089Z,34.33
2017-11-05T00:34:25.405Z,36.03
2017-11-05T00:36:52.872Z,35.38
2017-11-05T00:39:20.369Z,32.63
2017-11-05T00:41:48.616Z,33.70
2017-11-05T00:44:16.189Z,41.37
2017-11-05T00:46:43.662Z,35.38
2017-11-05T00:49:11.901Z,34.88
2017-11-05T00:51:39.383Z,32.80
2017-11-05T00:54:06.879Z,33.53
2017-11-05T00:56:34.345Z,30.30
2017-11-05T00:59:01.819Z,36.00
2017-11-05T01:01:29.292Z,36.17
2017-11-05T01:03:57.112Z,39.20
2017-11-05T01:06:27.965Z,37.20
2017-11-05T01:08:55.441Z,32.15
2017-11-05T01:11:22.921Z,30.48
2017-11-05T01:13:50.429Z,32.00
2017-11-05T01:16:17.937Z,34.22
2017-11-05T01:18:45.498Z,37.13
2017-11-05T01:21:12.979Z,35.15
2017-11-05T01:23:41.224Z,35.47
2017-11-05T01:26:08.725Z,36.47
2017-11-05T01:28:36.247Z,33.30
2017-11-05T01:31:03.726Z,32.10
2017-11-05T01:33:31.965Z,42.40
2017-11-05T01:35:59.442Z,33.55
2017-11-05T01:38:27.681Z,34.03
2017-11-05T01:40:55.164Z,37.95
2017-11-05T01:43:22.724Z,31.92
2017-11-05T01:45:50.220Z,36.35
2017-11-05T01:48:17.746Z,35.67
2017-11-05T01:50:45.228Z,38.10
2017-11-05T01:53:12.758Z,33.05
2017-11-05T01:55:40.225Z,35.08
2017-11-05T01:58:08.494Z,42.13
2017-11-05T02:00:35.969Z,35.25
2017-11-05T02:03:04.204Z,36.05
2017-11-05T02:05:31.664Z,36.08
2017-11-05T02:07:59.132Z,39.10
2017-11-05T02:10:26.600Z,36.75
2017-11-05T02:12:54.845Z,37.28
2017-11-05T02:15:22.327Z,41.00
2017-11-05T02:17:49.810Z,32.45
2017-11-05T02:20:17.343Z,34.90
2017-11-05T02:22:45.593Z,36.85
2017-11-05T02:25:13.070Z,35.60
2017-11-05T02:27:40.549Z,36.22
2017-11-05T02:30:08.796Z,38.58
2017-11-05T02:32:36.284Z,37.53
2017-11-05T02:35:04.534Z,34.08
2017-11-05T02:37:32.095Z,35.63
2017-11-05T02:39:59.586Z,33.38
2017-11-05T02:42:27.110Z,38.15
2017-11-05T02:44:54.600Z,30.25
2017-11-05T02:47:26.937Z,36.03
2017-11-05T02:49:54.418Z,38.75
2017-11-05T02:52:22.674Z,35.33
2017-11-05T02:54:50.154Z,35.20
2017-11-05T02:57:18.529Z,38.67
2017-11-05T02:59:46.793Z,36.85
2017-11-05T03:02:15.034Z,40.45
2017-11-05T03:04:42.523Z,36.15
2017-11-05T03:07:10.781Z,39.58
2017-11-05T03:09:38.345Z,37.70
2017-11-05T03:12:05.826Z,36.40
2017-11-05T03:14:34.086Z,33.95
2017-11-05T03:17:01.575Z,36.70
2017-11-05T03:19:29.048Z,36.35
2017-11-05T03:21:56.555Z,36.80
2017-11-05T03:24:24.035Z,35.88
2017-11-05T03:26:52.288Z,37.40
2017-11-05T03:29:19.767Z,34.17
2017-11-05T03:31:47.300Z,36.78
2017-11-05T03:34:14.777Z,34.03
2017-11-05T03:36:43.022Z,39.42
2017-11-05T03:39:10.489Z,46.13
2017-11-05T03:41:37.975Z,37.50
2017-11-05T03:44:05.471Z,35.05
2017-11-05T03:46:32.967Z,37.08
2017-11-05T03:49:01.228Z,35.83
2017-11-05T03:51:28.799Z,37.80
2017-11-05T03:53:56.282Z,36.72
2017-11-05T03:56:23.759Z,34.72
2017-11-05T03:58:51.234Z,36.75
2017-11-05T04:01:18.718Z,37.05
2017-11-05T04:03:46.288Z,38.65
2017-11-05T04:06:14.653Z,37.83
2017-11-05T04:08:42.226Z,37.72
2017-11-05T04:11:10.464Z,32.13
2017-11-05T04:13:37.959Z,36.13
2017-11-05T04:16:06.202Z,30.12
2017-11-05T04:18:33.695Z,32.67
2017-11-05T04:21:01.959Z,34.50
2017-11-05T04:23:29.439Z,34.20
2017-11-05T04:25:57.678Z,35.47
2017-11-05T04:28:25.155Z,42.25
2017-11-05T04:30:53.398Z,36.47
2017-11-05T04:33:20.887Z,32.47
2017-11-05T04:35:49.147Z,36.75
2017-11-05T04:38:17.384Z,37.03
2017-11-05T04:40:44.890Z,34.42
2017-11-05T04:43:12.356Z,33.35
2017-11-05T04:45:40.627Z,39.55
2017-11-05T04:48:08.101Z,34.95
2017-11-05T04:50:36.482Z,43.92
2017-11-05T04:53:03.950Z,35.45
2017-11-05T04:55:31.518Z,35.17
2017-11-05T04:57:58.998Z,39.53
2017-11-05T05:00:26.472Z,37.67
2017-11-05T05:02:54.031Z,34.10
2017-11-05T05:05:21.612Z,33.88
2017-11-05T05:07:49.880Z,35.47
2017-11-05T05:10:17.372Z,39.95
2017-11-05T05:12:44.865Z,40.58
2017-11-05T05:15:12.334Z,37.80
2017-11-05T05:17:39.920Z,35.92
2017-11-05T05:20:08.191Z,37.90
2017-11-05T05:22:35.748Z,46.10
2017-11-05T05:25:03.236Z,32.38
2017-11-05T05:27:30.761Z,37.05
2017-11-05T05:29:58.327Z,42.22
2017-11-05T05:32:26.598Z,40.85
2017-11-05T05:34:54.162Z,38.17
2017-11-05T05:37:21.638Z,34.88
2017-11-05T05:39:49.865Z,32.33
2017-11-05T05:42:17.334Z,36.05
2017-11-05T05:44:44.903Z,42.90
2017-11-05T05:47:12.460Z,39.38
2017-11-05T05:49:39.954Z,36.80
2017-11-05T05:52:07.414Z,35.58
2017-11-05T05:54:34.934Z,38.47
2017-11-05T05:57:02.405Z,37.50
2017-11-05T05:59:30.664Z,37.72
2017-11-05T06:01:58.121Z,40.35
2017-11-05T06:04:26.372Z,36.53
2017-11-05T06:06:53.946Z,40.53
2017-11-05T06:09:21.419Z,34.03
2017-11-05T06:11:49.667Z,35.10
2017-11-05T06:14:17.138Z,38.60
2017-11-05T06:16:44.715Z,41.20
2017-11-05T06:19:13.075Z,40.97
2017-11-05T06:21:40.546Z,36.60
2017-11-05T06:24:08.827Z,38.78
2017-11-05T06:26:37.086Z,39.38
2017-11-05T06:29:05.331Z,39.72
2017-11-05T06:31:32.814Z,37.88
2017-11-05T06:34:00.290Z,40.60
2017-11-05T06:36:28.602Z,37.65
2017-11-05T06:38:56.070Z,33.33
2017-11-05T06:41:23.525Z,34.67
2017-11-05T06:43:50.996Z,38.40
2017-11-05T06:46:18.466Z,39.20
2017-11-05T06:48:45.940Z,38.22
2017-11-05T06:51:13.503Z,34.30
2017-11-05T06:53:41.778Z,40.00
2017-11-05T06:56:10.057Z,39.35
2017-11-05T06:58:38.295Z,32.33
2017-11-05T07:01:05.763Z,35.63
2017-11-05T07:03:33.238Z,36.70
2017-11-05T07:06:00.880Z,32.42
2017-11-05T07:08:28.362Z,39.65
2017-11-05T07:10:56.676Z,42.15
2017-11-05T07:13:24.190Z,36.38
2017-11-05T07:15:51.742Z,34.88
2017-11-05T07:18:20.735Z,38.60
2017-11-05T07:20:48.209Z,41.55
2017-11-05T07:23:16.450Z,36.97
2017-11-05T07:25:43.912Z,38.15
2017-11-05T07:28:11.486Z,33.28
2017-11-05T07:30:39.042Z,41.50
2017-11-05T07:33:06.654Z,40.60
2017-11-05T07:35:34.171Z,34.70
2017-11-05T07:38:02.422Z,38.33
2017-11-05T07:40:29.995Z,28.87
2017-11-05T07:42:57.491Z,37.40
2017-11-05T07:45:24.992Z,35.33
2017-11-05T07:47:52.469Z,38.60
2017-11-05T07:50:20.738Z,40.60
2017-11-05T07:52:48.209Z,41.88
2017-11-05T07:55:16.467Z,35.00
2017-11-05T07:57:43.943Z,37.33
2017-11-05T08:00:12.210Z,37.53
2017-11-05T08:02:40.483Z,34.03
2017-11-05T08:05:08.062Z,38.38
2017-11-05T08:07:36.305Z,37.53
2017-11-05T08:10:03.878Z,39.03
2017-11-05T08:12:31.393Z,37.00
2017-11-05T08:14:58.900Z,41.08
2017-11-05T08:17:27.165Z,43.70
2017-11-05T08:19:54.640Z,42.47
2017-11-05T08:22:22.902Z,38.55
2017-11-05T08:24:50.399Z,40.45
2017-11-05T08:27:17.966Z,38.50
2017-11-05T08:29:45.479Z,37.60
2017-11-05T08:32:13.728Z,41.58
2017-11-05T08:34:41.253Z,41.50
2017-11-05T08:37:08.744Z,43.67
2017-11-05T08:39:36.226Z,41.20
2017-11-05T08:42:04.482Z,46.83
2017-11-05T08:44:32.252Z,39.28
2017-11-05T08:46:59.734Z,42.28
2017-11-05T08:49:28.005Z,44.60
2017-11-05T08:51:56.310Z,42.45
2017-11-05T08:54:23.807Z,44.20
2017-11-05T08:56:51.269Z,42.00
2017-11-05T08:59:18.801Z,43.10
2017-11-05T09:01:46.278Z,42.33
2017-11-05T09:04:13.758Z,44.88
2017-11-05T09:06:42.009Z,42.72
2017-11-05T09:09:09.483Z,40.60
2017-11-05T09:11:36.960Z,42.92
2017-11-05T09:14:05.214Z,39.47
2017-11-05T09:16:32.693Z,45.55
2017-11-05T09:19:00.942Z,42.00
2017-11-05T09:21:28.431Z,37.90
2017-11-05T09:23:56.780Z,37.92
2017-11-05T09:26:24.336Z,37.70
2017-11-05T09:28:51.837Z,36.47
2017-11-05T09:31:19.314Z,44.95
2017-11-05T09:33:46.810Z,38.42
2017-11-05T09:36:14.320Z,40.20
2017-11-05T09:38:41.792Z,40.90
2017-11-05T09:41:09.294Z,36.30
2017-11-05T09:43:37.517Z,43.22
2017-11-05T09:46:05.273Z,34.75
2017-11-05T09:48:32.786Z,37.70
2017-11-05T09:51:01.050Z,40.08
2017-11-05T09:53:28.666Z,33.80
2017-11-05T09:55:56.166Z,40.40
2017-11-05T09:58:23.662Z,37.43
2017-11-05T10:00:51.342Z,34.50
2017-11-05T10:03:20.131Z,40.00
2017-11-05T10:05:47.791Z,35.00
2017-11-05T10:08:15.293Z,36.43
2017-11-05T10:10:42.852Z,43.33
2017-11-05T10:13:10.423Z,37.40
2017-11-05T10:15:38.652Z,36.80
2017-11-05T10:18:06.152Z,31.13
2017-11-05T10:20:33.717Z,36.63
2017-11-05T10:23:01.973Z,40.23
2017-11-05T10:25:30.232Z,46.83
2017-11-05T10:27:57.716Z,39.67
2017-11-05T10:30:25.191Z,38.00
2017-11-05T10:32:54.024Z,33.33
2017-11-05T10:35:22.799Z,36.53
2017-11-05T10:37:50.782Z,33.70
2017-11-05T10:40:19.674Z,38.77
2017-11-05T10:42:47.998Z,44.63
2017-11-05T10:45:16.226Z,33.47
2017-11-05T10:47:43.871Z,33.00
2017-11-05T10:50:11.368Z,33.23
2017-11-05T10:52:38.933Z,33.73
2017-11-05T10:55:06.493Z,34.57
2017-11-05T10:57:33.960Z,41.37
2017-11-05T11:00:02.199Z,35.70
2017-11-05T11:02:29.669Z,36.07
2017-11-05T11:04:57.148Z,27.30
2017-11-05T11:07:25.418Z,34.10
2017-11-05T11:09:52.901Z,36.70
2017-11-05T11:12:21.152Z,32.03
2017-11-05T11:14:48.700Z,31.53
2017-11-05T11:17:16.186Z,28.77
2017-11-05T11:19:44.434Z,33.33
2017-11-05T11:22:11.913Z,26.77
2017-11-05T11:24:40.170Z,32.20
2017-11-05T11:27:07.651Z,30.57
2017-11-05T11:29:35.914Z,36.83
2017-11-05T11:32:04.173Z,26.27
2017-11-05T11:34:31.739Z,27.70
2017-11-05T11:37:00.029Z,26.97
2017-11-05T11:39:28.285Z,33.73
2017-11-05T11:41:55.772Z,29.40
2017-11-05T11:44:23.247Z,27.70
2017-11-05T11:46:50.747Z,30.40
2017-11-05T11:49:18.233Z,29.27
2017-11-05T11:51:46.506Z,22.40
2017-11-05T11:54:14.757Z,34.60
2017-11-05T11:56:42.330Z,25.90
2017-11-05T11:59:09.881Z,28.57
2017-11-05T12:01:37.392Z,27.03
2017-11-05T12:04:04.950Z,24.93
2017-11-05T12:06:32.422Z,28.57
2017-11-05T12:08:59.915Z,25.27
2017-11-05T12:11:27.387Z,30.57
2017-11-05T12:13:55.646Z,28.30
2017-11-05T12:16:23.126Z,21.50
2017-11-05T12:18:51.378Z,24.37
2017-11-05T12:21:18.866Z,28.00
2017-11-05T12:23:47.111Z,25.73
2017-11-05T12:26:14.597Z,28.30
2017-11-05T12:28:42.841Z,27.30
2017-11-05T12:31:10.406Z,26.00
2017-11-05T12:33:37.905Z,23.73
2017-11-05T12:36:05.434Z,23.83
2017-11-05T12:38:33.821Z,22.63
2017-11-05T12:41:02.074Z,20.97
2017-11-05T12:43:30.326Z,23.17
2017-11-05T12:45:57.806Z,31.27
2017-11-05T12:48:25.284Z,18.73
2017-11-05T12:50:53.531Z,19.97
2017-11-05T12:53:22.501Z,19.77
2017-11-05T12:55:50.094Z,21.93
2017-11-05T12:58:18.370Z,24.10
2017-11-05T13:00:45.992Z,35.23
2017-11-05T13:03:13.470Z,23.73
2017-11-05T13:05:41.043Z,22.47
2017-11-05T13:08:08.515Z,25.70
2017-11-05T13:10:36.770Z,19.10
2017-11-05T13:13:04.402Z,25.10
2017-11-05T13:15:32.041Z,18.30
2017-11-05T13:17:59.510Z,25.20
2017-11-05T13:20:26.997Z,25.53
2017-11-05T13:22:54.564Z,23.07
2017-11-05T13:25:22.046Z,22.33
2017-11-05T13:27:50.319Z,24.90
2017-11-05T13:30:18.628Z,24.37
2017-11-05T13:32:46.162Z,26.40
2017-11-05T13:35:13.663Z,19.70
2017-11-05T13:37:41.154Z,22.20
2017-11-05T13:40:09.390Z,23.20
2017-11-05T13:42:36.890Z,19.70
2017-11-05T13:45:05.172Z,21.37
2017-11-05T13:47:33.424Z,21.40
2017-11-05T13:50:01.646Z,21.37
2017-11-05T13:52:29.133Z,20.27
2017-11-05T13:54:56.619Z,21.40
2017-11-05T13:57:24.106Z,24.37
2017-11-05T13:59:51.617Z,19.90
2017-11-05T14:02:19.087Z,23.13
2017-11-05T14:04:46.706Z,31.07
2017-11-05T14:07:14.206Z,24.93
2017-11-05T14:09:41.710Z,26.43
2017-11-05T14:12:09.167Z,21.73
2017-11-05T14:14:36.638Z,27.80
2017-11-05T14:17:04.119Z,25.27
2017-11-05T14:19:31.606Z,20.67
2017-11-05T14:21:59.849Z,22.23
2017-11-05T14:24:27.433Z,31.00
2017-11-05T14:26:55.729Z,24.30
2017-11-05T14:29:23.993Z,26.70
2017-11-05T14:31:52.236Z,21.70
2017-11-05T14:34:19.770Z,24.47
2017-11-05T14:36:47.240Z,22.63
2017-11-05T14:39:14.726Z,28.00
2017-11-05T14:41:42.189Z,21.83
2017-11-05T14:44:10.466Z,24.87
2017-11-05T14:46:38.746Z,24.40
2017-11-05T14:49:06.983Z,24.87
2017-11-05T14:51:34.578Z,27.30
2017-11-05T14:54:02.061Z,21.90
2017-11-05T14:56:29.552Z,24.40
2017-11-05T14:58:57.058Z,23.77
2017-11-05T15:01:25.342Z,23.57
2017-11-05T15:03:53.744Z,22.00
2017-11-05T15:06:21.277Z,20.97
2017-11-05T15:08:48.815Z,25.17
2017-11-05T15:11:16.540Z,22.53
2017-11-05T15:13:44.038Z,26.17
2017-11-05T15:16:12.307Z,22.67
2017-11-05T15:18:39.773Z,23.13
2017-11-05T15:21:08.019Z,24.60
2017-11-05T15:23:35.538Z,21.37
2017-11-05T15:26:03.025Z,26.93
2017-11-05T15:28:30.614Z,21.57
2017-11-05T15:30:58.132Z,28.97
2017-11-05T15:33:25.613Z,26.40
2017-11-05T15:35:53.106Z,24.97
2017-11-05T15:38:21.342Z,28.17
2017-11-05T15:40:48.830Z,32.17
2017-11-05T15:43:17.093Z,32.57
2017-11-05T15:45:44.581Z,30.10
2017-11-05T15:48:12.064Z,30.80
2017-11-05T15:50:39.583Z,38.40
2017-11-05T15:53:07.822Z,40.67
2017-11-05T15:55:35.436Z,40.30
2017-11-05T15:58:03.656Z,39.57
2017-11-05T16:00:31.134Z,37.80
2017-11-05T16:02:58.603Z,40.40
2017-11-05T16:05:26.838Z,40.20
2017-11-05T16:07:54.320Z,46.20
2017-11-05T16:10:21.893Z,40.90
2017-11-05T16:12:50.113Z,40.73
2017-11-05T16:15:17.716Z,51.37
2017-11-05T16:17:45.204Z,39.70
2017-11-05T16:20:12.697Z,41.97
2017-11-05T16:22:40.160Z,46.60
2017-11-05T16:25:07.645Z,39.50
2017-11-05T16:27:35.934Z,41.83
2017-11-05T16:30:04.196Z,41.77
2017-11-05T16:32:31.673Z,35.97
2017-11-05T16:35:00.038Z,31.57
2017-11-05T16:37:28.314Z,31.77
2017-11-05T16:39:56.772Z,37.73
2017-11-05T16:42:24.251Z,27.80
2017-11-05T16:44:52.498Z,19.53
2017-11-05T16:47:19.992Z,11.60
2017-11-05T16:49:47.474Z,6.28
2017-11-05T16:52:14.959Z,8.90
2017-11-05T16:54:42.422Z,4.18
2017-11-05T16:57:10.018Z,6.12
2017-11-05T16:59:38.331Z,2.45
2017-11-05T17:02:05.837Z,2.33
2017-11-05T17:04:33.422Z,2.78
2017-11-05T17:07:01.655Z,2.65
2017-11-05T17:09:29.128Z,1.10
2017-11-05T17:11:56.627Z,1.60
2017-11-05T17:14:24.102Z,2.30
2017-11-05T17:16:51.579Z,2.33
2017-11-05T17:19:19.174Z,3.25
2017-11-05T17:21:47.500Z,3.15
2017-11-05T17:24:15.006Z,2.78
2017-11-05T17:26:43.247Z,3.83
2017-11-05T17:29:10.733Z,2.70
2017-11-05T17:31:39.008Z,4.72
2017-11-05T17:34:06.507Z,1.90
2017-11-05T17:36:33.978Z,3.05
2017-11-05T17:39:01.446Z,1.75
2017-11-05T17:41:28.946Z,3.12
2017-11-05T17:43:57.216Z,2.25
2017-11-05T17:46:25.592Z,4.30
2017-11-05T17:48:53.111Z,4.32
2017-11-05T17:51:20.608Z,1.62
2017-11-05T17:53:48.862Z,2.70
2017-11-05T17:56:16.351Z,1.70
2017-11-05T17:58:44.586Z,3.10
2017-11-05T18:01:12.066Z,1.80
2017-11-05T18:03:39.653Z,2.42
2017-11-05T18:06:07.168Z,2.72
2017-11-05T18:08:34.644Z,2.60
2017-11-05T18:11:02.202Z,1.83
2017-11-05T18:13:29.680Z,1.35
2017-11-05T18:15:57.935Z,1.48
2017-11-05T18:18:26.219Z,1.55
2017-11-05T18:20:54.458Z,1.70
2017-11-05T18:23:21.946Z,2.80
2017-11-05T18:25:50.183Z,3.62
2017-11-05T18:28:17.731Z,2.12
2017-11-05T18:30:45.192Z,1.65
2017-11-05T18:33:12.937Z,1.67
2017-11-05T18:35:40.461Z,3.70
2017-11-05T18:38:08.698Z,1.70
2017-11-05T18:40:36.184Z,10.15
2017-11-05T18:43:03.670Z,5.03
2017-11-05T18:45:31.242Z,2.20
2017-11-05T18:47:58.770Z,1.87
2017-11-05T18:50:26.305Z,1.83
2017-11-05T18:52:53.782Z,5.57
2017-11-05T18:55:22.049Z,2.70
2017-11-05T18:57:49.517Z,2.55
2017-11-05T19:00:17.840Z,2.03
2017-11-05T19:02:45.304Z,2.22
2017-11-05T19:05:12.802Z,4.03
2017-11-05T19:07:41.045Z,4.55
2017-11-05T19:10:08.519Z,3.58
2017-11-05T19:12:36.441Z,2.75
2017-11-05T19:15:03.952Z,4.43
2017-11-05T19:17:32.198Z,5.43
2017-11-05T19:19:59.658Z,3.85
2017-11-05T19:22:27.126Z,2.83
2017-11-05T19:24:54.602Z,5.00
2017-11-05T19:27:22.835Z,7.55
2017-11-05T19:29:50.300Z,10.25
2017-11-05T19:32:18.097Z,9.35
2017-11-05T19:34:45.643Z,6.72
2017-11-05T19:37:13.255Z,4.50
2017-11-05T19:39:40.737Z,9.27
2017-11-05T19:42:08.192Z,7.43
2017-11-05T19:44:36.239Z,6.12
2017-11-05T19:47:04.637Z,3.90
2017-11-05T19:49:32.113Z,4.57
2017-11-05T19:52:00.370Z,3.42
2017-11-05T19:54:27.841Z,4.60
2017-11-05T19:56:55.689Z,6.20
2017-11-05T19:59:23.977Z,10.50
2017-11-05T20:01:51.433Z,3.95
2017-11-05T20:04:19.013Z,5.20
2017-11-05T20:06:46.498Z,6.10
2017-11-05T20:09:14.020Z,4.32
2017-11-05T20:11:41.609Z,6.37
2017-11-05T20:14:09.846Z,8.05
2017-11-05T20:16:37.319Z,4.75
2017-11-05T20:19:04.773Z,7.00
2017-11-05T20:21:32.278Z,6.90
2017-11-05T20:23:59.805Z,5.30
2017-11-05T20:26:28.300Z,5.28
2017-11-05T20:28:56.538Z,6.28
2017-11-05T20:31:24.336Z,6.70
2017-11-05T20:33:52.586Z,5.20
2017-11-05T20:36:20.063Z,6.75
2017-11-05T20:38:48.394Z,7.78
2017-11-05T20:41:15.975Z,12.35
2017-11-05T20:43:43.903Z,5.62
2017-11-05T20:46:12.792Z,5.45
2017-11-05T20:48:41.170Z,8.90
2017-11-05T20:51:08.726Z,12.07
2017-11-05T20:53:36.229Z,8.63
2017-11-05T20:56:04.027Z,10.43
2017-11-05T20:58:31.529Z,6.65
2017-11-05T21:00:59.005Z,8.85
2017-11-05T21:03:26.519Z,12.43
2017-11-05T21:05:54.043Z,8.27
2017-11-05T21:08:22.682Z,8.05
2017-11-05T21:10:50.275Z,10.65
2017-11-05T21:13:17.824Z,9.00
2017-11-05T21:15:45.381Z,12.90
2017-11-05T21:18:12.856Z,15.70
2017-11-05T21:20:41.278Z,12.13
2017-11-05T21:23:09.577Z,7.80
2017-11-05T21:25:37.056Z,13.45
2017-11-05T21:28:04.569Z,10.07
2017-11-05T21:30:32.049Z,11.70
2017-11-05T21:32:59.518Z,10.63
2017-11-05T21:35:27.102Z,14.73
2017-11-05T21:37:55.332Z,15.02
2017-11-05T21:40:22.804Z,8.85
2017-11-05T21:42:50.368Z,13.05
2017-11-05T21:45:17.840Z,12.60
2017-11-05T21:47:45.324Z,15.07
2017-11-05T21:50:12.792Z,17.05
2017-11-05T21:52:40.253Z,9.80
2017-11-05T21:55:07.764Z,12.32
2017-11-05T21:57:36.020Z,11.70
2017-11-05T22:00:03.486Z,8.80
2017-11-05T22:02:30.949Z,13.02
2017-11-05T22:04:58.442Z,12.63
2017-11-05T22:07:25.917Z,11.18
2017-11-05T22:09:53.391Z,16.80
2017-11-05T22:12:20.863Z,14.27
2017-11-05T22:14:48.385Z,14.98
2017-11-05T22:17:15.881Z,13.95
2017-11-05T22:19:44.155Z,13.52
2017-11-05T22:22:11.627Z,11.30
2017-11-05T22:24:39.886Z,14.93
2017-11-05T22:27:07.348Z,14.38
2017-11-05T22:29:34.906Z,14.52
2017-11-05T22:32:02.378Z,9.55
2017-11-05T22:34:29.861Z,10.90
2017-11-05T22:36:58.669Z,19.90
2017-11-05T22:39:26.205Z,9.75
2017-11-05T22:41:54.431Z,9.27
2017-11-05T22:44:21.895Z,10.48
2017-11-05T22:46:49.504Z,14.00
2017-11-05T22:49:17.027Z,9.63
2017-11-05T22:51:44.557Z,11.00
2017-11-05T22:54:12.039Z,10.43
2017-11-05T22:56:39.502Z,11.20
2017-11-05T22:59:06.965Z,12.18
2017-11-05T23:01:35.206Z,11.63
2017-11-05T23:04:02.682Z,8.60
2017-11-05T23:06:30.274Z,7.47
2017-11-05T23:08:57.758Z,9.32
2017-11-05T23:11:25.237Z,9.68
2017-11-05T23:13:52.796Z,9.70
2017-11-05T23:16:20.276Z,18.67
2017-11-05T23:18:48.603Z,13.23
2017-11-05T23:21:16.107Z,11.55
2017-11-05T23:23:43.653Z,8.95
2017-11-05T23:26:11.115Z,8.93
2017-11-05T23:28:38.594Z,17.67
2017-11-05T23:31:06.818Z,15.35
2017-11-05T23:33:34.297Z,11.15
2017-11-05T23:36:01.854Z,8.95
2017-11-05T23:38:29.327Z,16.48
2017-11-05T23:40:56.812Z,13.95
2017-11-05T23:43:25.090Z,10.55
2017-11-05T23:45:52.562Z,8.00
2017-11-05T23:48:20.209Z,9.93
2017-11-05T23:50:47.686Z,14.38
2017-11-05T23:53:15.186Z,8.73
2017-11-05T23:55:42.747Z,10.55
2017-11-05T23:58:10.312Z,15.05
